Latest Weather Observations for Gold Coast Seaway

IDQ60901

Issued at 4:21 pm EST Thursday 28 January 2021 (issued every 10 minutes, with the page automatically refreshed every 10 minutes)

About weather observations | Map of Brisbane area stations | Latest observations for Brisbane area | Other Formats
Station Details ID: 040764 Name: GOLD COAST SEAWAY Lat: -27.94 Lon: 153.43 Height: 2.98 m
Data from the previous 72 hours. | See also: Recent months at Gold Coast Seaway
Date/Time
EST
Temp
°C
App
Temp
°C
Dew
Point
°C
Rel
Hum
%
Delta-T
°C
Wind Press
QNH
hPa
Press
MSL
hPa
Rain since
9am
mm
Dir  Spd
km/h
Gust
km/h
Spd
kts
Gust
kts
28/04:00pm 26.8 23.9 19.2 63 4.9 SE 33 37 18 20 1011.6 1011.6 0.2
28/03:30pm 27.5 25.3 20.8 67 4.4 SE 33 39 18 21 1011.8 1011.8 0.2
28/03:00pm 26.9 25.1 20.3 67 4.3 SE 30 35 16 19 1012.0 1012.0 0.2
28/02:30pm 27.2 25.4 20.3 66 4.5 SE 30 35 16 19 1012.0 1012.0 0.2
28/02:00pm 28.1 26.0 20.6 63 4.9 SE 32 37 17 20 1012.3 1012.3 0.2
28/01:30pm 27.8 25.3 19.8 61 5.2 SE 32 37 17 20 1012.5 1012.5 0.2
28/01:00pm 27.9 25.8 20.5 64 4.9 SE 32 39 17 21 1012.9 1012.9 0.2
28/12:30pm 28.0 25.8 20.3 63 5.1 SE 32 39 17 21 1013.2 1013.2 0.2
28/12:00pm 27.5 25.0 19.8 63 5.0 SE 32 37 17 20 1013.4 1013.4 0.2
28/11:30am 27.5 24.9 19.6 62 5.1 SE 32 39 17 21 1013.6 1013.6 0.2
28/11:00am 27.3 24.9 19.9 64 4.8 SE 32 37 17 20 1013.8 1013.8 0.2
28/10:30am 27.0 24.0 19.1 62 5.1 ESE 33 37 18 20 1013.9 1013.9 0.2
28/10:00am 27.1 24.6 20.2 66 4.5 ESE 33 39 18 21 1013.7 1013.7 0.2
28/09:30am 26.9 24.8 20.5 68 4.2 ESE 32 37 17 20 1013.6 1013.6 0.2
28/09:00am 26.9 24.7 20.3 67 4.3 ESE 32 35 17 19 1013.4 1013.4 1.8
28/08:30am 26.1 23.8 20.2 70 3.8 ESE 32 37 17 20 1013.1 1013.1 1.8
28/08:00am 26.2 24.3 20.1 69 4.0 ESE 30 35 16 19 1013.0 1013.0 1.8
28/07:30am 26.0 23.9 20.6 72 3.5 ESE 32 37 17 20 1012.8 1012.8 1.8
28/07:00am 25.3 23.0 20.5 75 3.1 ESE 33 39 18 21 1012.6 1012.6 1.8
28/06:30am 25.2 23.2 20.7 76 2.9 ESE 32 35 17 19 1012.2 1012.2 1.8
28/06:00am 24.9 22.9 19.9 74 3.2 SE 30 35 16 19 1011.8 1011.8 1.8
28/05:30am 24.8 23.7 21.1 80 2.4 ESE 28 33 15 18 1011.4 1011.4 1.8
28/05:00am 24.7 23.1 20.8 79 2.6 ESE 30 33 16 18 1011.2 1011.2 1.8
28/04:30am 24.6 23.1 20.9 80 2.4 ESE 30 35 16 19 1010.7 1010.7 1.8
28/04:00am 24.9 23.6 20.6 77 2.8 SE 28 33 15 18 1010.5 1010.5 1.8
28/03:30am 25.1 24.1 21.2 79 2.6 SE 28 32 15 17 1010.4 1010.4 1.8
28/03:00am 25.1 24.2 21.4 80 2.4 ESE 28 33 15 18 1010.4 1010.4 1.8
28/02:30am 25.0 23.8 20.9 78 2.7 SE 28 33 15 18 1010.3 1010.3 1.8
28/02:00am 25.2 25.1 21.5 80 2.5 SE 24 28 13 15 1010.5 1010.5 1.8
28/01:30am 25.2 24.9 21.1 78 2.7 ESE 24 26 13 14 1010.8 1010.8 1.8
28/01:00am 25.1 24.7 21.0 78 2.7 ESE 24 30 13 16 1010.7 1010.7 1.8
28/12:30am 25.2 24.9 21.1 78 2.7 ESE 24 28 13 15 1011.0 1011.0 1.8
28/12:00am 25.3 24.9 21.0 77 2.8 ESE 24 28 13 15 1011.3 1011.3 1.8
 
Date/Time
EST
Temp
°C
App
Temp
°C
Dew
Point
°C
Rel
Hum
%
Delta-T
°C
Wind Press
QNH
hPa
Press
MSL
hPa
Rain since
9am
mm
Dir  Spd
km/h
Gust
km/h
Spd
kts
Gust
kts
27/11:30pm 25.4 25.3 21.5 79 2.6 E 24 28 13 15 1011.5 1011.5 1.8
27/11:00pm 25.4 25.2 21.3 78 2.7 E 24 28 13 15 1011.4 1011.4 1.8
27/10:30pm 25.3 25.2 21.4 79 2.6 E 24 30 13 16 1011.4 1011.4 1.8
27/10:00pm 25.2 25.7 21.9 82 2.2 ENE 22 28 12 15 1011.4 1011.4 1.8
27/09:30pm 24.7 25.0 22.2 86 1.7 ENE 24 28 13 15 1011.3 1011.3 1.2
27/09:09pm 25.3 26.1 21.4 79 2.6 E 19 35 10 19 1011.3 1011.3 0.0
27/09:00pm 25.9 28.3 21.6 77 2.9 E 11 13 6 7 1011.3 1011.3 0.0
27/08:30pm 25.8 27.3 21.2 76 3.0 E 15 20 8 11 1011.3 1011.3 0.0
27/08:00pm 25.9 27.6 21.6 77 2.9 ENE 15 19 8 10 1010.9 1010.9 0.0
27/07:30pm 25.8 27.3 21.2 76 3.0 E 15 17 8 9 1010.4 1010.4 0.0
27/07:00pm 25.8 27.5 21.0 75 3.2 ENE 13 17 7 9 1010.3 1010.3 0.0
27/06:30pm 26.0 27.1 21.2 75 3.2 ENE 17 20 9 11 1010.2 1010.2 0.0
27/06:00pm 26.4 27.9 21.2 73 3.4 ENE 15 19 8 10 1009.8 1009.8 0.0
27/05:30pm 26.6 28.0 21.8 75 3.2 NE 17 20 9 11 1009.5 1009.5 0.0
27/05:00pm 27.1 28.4 21.6 72 3.7 NE 17 20 9 11 1009.2 1009.2 0.0
27/04:30pm 27.2 28.2 22.2 74 3.4 NE 20 26 11 14 1009.0 1009.0 0.0
27/04:00pm 27.2 27.6 21.7 72 3.7 NE 22 24 12 13 1008.7 1008.7 0.0
27/03:30pm 28.2 29.2 22.2 70 4.0 NE 20 24 11 13 1008.5 1008.5 0.0
27/03:00pm 28.9 29.9 21.7 65 4.8 NE 19 22 10 12 1008.6 1008.6 0.0
27/02:30pm 29.8 31.2 22.8 66 4.8 NE 20 26 11 14 1008.7 1008.7 0.0
27/02:00pm 29.5 30.4 22.0 64 5.1 NE 20 26 11 14 1008.9 1008.9 0.0
27/01:30pm 29.4 30.3 21.9 64 5.1 NE 20 26 11 14 1008.9 1008.9 0.0
27/01:00pm 29.1 30.4 22.6 68 4.4 NE 20 26 11 14 1009.1 1009.1 0.0
27/12:30pm 28.1 29.0 21.9 69 4.2 NE 20 24 11 13 1009.0 1009.0 0.0
27/12:00pm 27.9 28.8 21.9 70 4.0 ENE 20 24 11 13 1009.2 1009.2 0.0
27/11:30am 28.2 29.3 22.4 71 3.9 ENE 20 24 11 13 1009.5 1009.5 0.0
27/11:00am 27.4 27.9 21.2 69 4.1 ENE 20 24 11 13 1009.5 1009.5 0.0
27/10:30am 27.4 28.1 21.2 69 4.1 NE 19 22 10 12 1009.6 1009.6 0.0
27/10:00am 27.2 27.9 21.5 71 3.8 ENE 20 22 11 12 1009.6 1009.6 0.0
27/09:30am 27.6 29.5 22.1 72 3.7 ENE 15 17 8 9 1009.7 1009.7 0.0
27/09:00am 27.6 30.2 21.9 71 3.8 ENE 11 13 6 7 1009.6 1009.6 0.0
27/08:30am 27.2 30.1 21.7 72 3.7 NE 9 11 5 6 1009.5 1009.5 0.0
27/08:00am 27.0 30.4 22.0 74 3.4 NE 7 9 4 5 1009.5 1009.5 0.0
27/07:30am 26.1 29.3 21.3 75 3.2 NNE 6 9 3 5 1009.2 1009.2 0.0
27/07:00am 25.2 28.0 20.9 77 2.8 NE 7 9 4 5 1009.0 1009.0 0.0
27/06:30am 24.2 28.0 20.1 78 2.7 CALM 0 2 0 1 1008.8 1008.8 0.0
27/06:00am 23.4 25.5 20.2 82 2.1 WNW 9 13 5 7 1008.1 1008.1 0.0
27/05:30am 22.5 26.0 19.5 83 1.9 CALM 0 6 0 3 1007.8 1007.8 0.0
27/05:00am 22.9 24.6 20.1 84 1.8 W 11 15 6 8 1007.5 1007.5 0.0
27/04:30am 22.9 25.6 20.2 85 1.7 WNW 6 7 3 4 1007.4 1007.4 0.0
27/04:00am 23.0 26.0 20.0 83 1.9 WNW 4 9 2 5 1007.4 1007.4 0.0
27/03:30am 23.6 26.2 20.5 83 2.0 W 7 11 4 6 1007.2 1007.2 0.0
27/03:00am 23.7 26.5 20.8 84 1.9 W 7 11 4 6 1007.3 1007.3 0.0
27/02:30am 23.9 26.9 20.8 83 2.0 W 6 7 3 4 1007.5 1007.5 0.0
27/02:00am 24.0 27.8 20.9 83 2.0 WNW 2 7 1 4 1007.6 1007.6 0.0
27/01:30am 24.0 28.2 20.9 83 2.0 CALM 0 0 0 0 1007.7 1007.7 0.0
27/01:00am 24.4 27.5 21.1 82 2.2 NW 6 7 3 4 1008.0 1008.0 0.0
27/12:30am 24.5 27.0 21.0 81 2.3 NW 9 13 5 7 1008.2 1008.2 0.0
27/12:00am 24.8 26.1 20.9 79 2.6 N 15 20 8 11 1008.3 1008.3 0.0
 
Date/Time
EST
Temp
°C
App
Temp
°C
Dew
Point
°C
Rel
Hum
%
Delta-T
°C
Wind Press
QNH
hPa
Press
MSL
hPa
Rain since
9am
mm
Dir  Spd
km/h
Gust
km/h
Spd
kts
Gust
kts
26/11:30pm 25.1 26.3 21.4 80 2.4 NNE 17 24 9 13 1008.5 1008.5 0.0
26/11:00pm 25.0 26.4 21.1 79 2.6 NNE 15 20 8 11 1008.6 1008.6 0.0
26/10:30pm 25.0 26.4 21.1 79 2.6 NNE 15 20 8 11 1008.9 1008.9 0.0
26/10:00pm 25.1 25.1 21.0 78 2.7 NE 22 28 12 15 1009.0 1009.0 0.0
26/09:30pm 25.4 26.2 21.3 78 2.7 NNE 19 24 10 13 1009.0 1009.0 0.0
26/09:00pm 25.3 25.6 20.8 76 3.0 NE 20 24 11 13 1008.9 1008.9 0.0
26/08:30pm 25.3 26.4 21.2 78 2.7 NE 17 20 9 11 1008.8 1008.8 0.0
26/08:00pm 25.2 26.3 21.3 79 2.6 NE 17 20 9 11 1008.4 1008.4 0.0
26/07:30pm 25.3 24.9 21.0 77 2.8 NE 24 28 13 15 1007.8 1007.8 0.0
26/07:00pm 25.5 25.2 20.3 73 3.4 NE 22 28 12 15 1007.3 1007.3 0.0
26/06:30pm 25.7 25.4 19.6 69 3.9 NE 20 24 11 13 1007.2 1007.2 0.0
26/06:00pm 26.5 26.4 19.9 67 4.3 NE 20 24 11 13 1006.7 1006.7 0.0
26/05:30pm 26.8 26.7 19.9 66 4.5 NE 20 24 11 13 1006.4 1006.4 0.0
26/05:00pm 26.9 26.6 20.3 67 4.3 NE 22 28 12 15 1006.0 1006.0 0.0
26/04:30pm 27.5 27.5 20.1 64 4.8 NE 20 24 11 13 1006.0 1006.0 0.0
26/04:00pm 27.7 27.4 19.5 61 5.3 NE 20 26 11 14 1006.0 1006.0 0.0
26/03:30pm 27.8 28.0 20.6 65 4.7 NE 20 24 11 13 1006.3 1006.3 0.0
26/03:00pm 27.3 27.3 20.1 64 4.7 NE 20 24 11 13 1006.5 1006.5 0.0
26/02:30pm 27.8 28.3 20.1 63 5.0 NE 17 20 9 11 1006.8 1006.8 0.0
26/02:00pm 28.0 28.9 20.8 65 4.8 ENE 17 20 9 11 1006.9 1006.9 0.0
26/01:30pm 27.7 28.6 20.0 63 5.0 ENE 15 19 8 10 1007.1 1007.1 0.0
26/01:00pm 27.6 28.2 19.4 61 5.3 ENE 15 20 8 11 1007.4 1007.4 0.0
26/12:30pm 28.3 29.7 20.3 62 5.3 ENE 13 19 7 10 1007.8 1007.8 0.0
26/12:00pm 27.6 28.6 19.4 61 5.3 ENE 13 15 7 8 1008.2 1008.2 0.0
26/11:30am 27.7 28.9 19.8 62 5.1 ENE 13 15 7 8 1008.3 1008.3 0.0
26/11:00am 27.7 29.0 19.2 60 5.5 ENE 11 13 6 7 1008.7 1008.7 0.0
26/10:30am 27.6 29.3 19.4 61 5.3 ENE 9 13 5 7 1008.9 1008.9 0.0
26/10:00am 27.7 29.2 19.0 59 5.6 ENE 9 11 5 6 1009.1 1009.1 0.0
26/09:30am 27.0 28.7 18.6 60 5.4 ENE 7 9 4 5 1009.3 1009.3 0.0
26/09:00am 26.7 28.5 18.8 62 5.1 E 7 9 4 5 1009.4 1009.4 3.8
26/08:30am 25.9 27.3 17.8 61 5.1 NW 7 9 4 5 1009.5 1009.5 3.8
26/08:00am 25.3 26.6 17.2 61 5.0 WNW 6 9 3 5 1009.4 1009.4 3.8
26/07:30am 24.5 26.2 18.0 67 4.1 WSW 6 9 3 5 1009.5 1009.5 3.8
26/07:00am 23.2 24.7 18.1 73 3.2 WSW 7 11 4 6 1009.3 1009.3 3.8
26/06:30am 21.9 23.0 17.9 78 2.5 SW 9 13 5 7 1009.4 1009.4 3.8
26/06:00am 20.7 21.9 17.3 81 2.1 WSW 7 11 4 6 1009.2 1009.2 3.8
26/05:30am 20.5 21.7 17.3 82 2.0 W 7 11 4 6 1008.9 1008.9 3.8
26/05:00am 20.2 21.3 17.2 83 1.8 WSW 7 9 4 5 1008.6 1008.6 3.8
26/04:30am 20.3 21.5 17.3 83 1.8 WSW 7 9 4 5 1008.4 1008.4 3.8
26/04:00am 20.4 21.6 17.4 83 1.8 WSW 7 11 4 6 1008.4 1008.4 3.8
26/03:30am 20.5 21.4 17.5 83 1.8 SW 9 13 5 7 1008.3 1008.3 3.8
26/03:00am 20.6 21.4 17.4 82 2.0 WSW 9 13 5 7 1008.3 1008.3 3.8
26/02:30am 20.5 21.4 17.5 83 1.8 SW 9 15 5 8 1008.5 1008.5 3.8
26/02:00am 20.7 22.1 17.7 83 1.9 WSW 7 9 4 5 1008.8 1008.8 3.8
26/01:30am 20.8 21.8 17.8 83 1.9 WSW 9 11 5 6 1009.1 1009.1 3.8
26/01:00am 21.0 21.6 17.8 82 2.0 SW 11 13 6 7 1009.3 1009.3 3.8
26/12:30am 21.0 21.9 17.6 81 2.1 SW 9 11 5 6 1009.7 1009.7 3.8
26/12:00am 21.5 22.6 17.9 80 2.2 WSW 9 15 5 8 1010.0 1010.0 3.8
 
Date/Time
EST
Temp
°C
App
Temp
°C
Dew
Point
°C
Rel
Hum
%
Delta-T
°C
Wind Press
QNH
hPa
Press
MSL
hPa
Rain since
9am
mm
Dir  Spd
km/h
Gust
km/h
Spd
kts
Gust
kts
25/11:30pm 21.7 22.4 17.9 79 2.4 SW 11 13 6 7 1010.1 1010.1 3.8
25/11:00pm 22.2 22.4 17.6 75 2.8 SW 13 15 7 8 1010.2 1010.2 3.8
25/10:30pm 23.5 24.4 17.5 69 3.7 NNE 9 13 5 7 1010.3 1010.3 3.8
25/10:00pm 23.7 24.5 17.2 67 4.0 NNE 9 17 5 9 1010.4 1010.4 3.8
25/09:30pm 23.8 23.5 17.3 67 4.0 NE 15 20 8 11 1010.4 1010.4 3.8
25/09:00pm 24.4 24.2 17.6 66 4.2 NE 15 20 8 11 1010.3 1010.3 3.8
25/08:30pm 24.4 24.5 18.3 69 3.8 NE 15 19 8 10 1010.1 1010.1 3.8
25/08:00pm 24.0 24.2 17.7 68 3.9 NE 13 17 7 9 1009.9 1009.9 3.8
25/07:30pm 24.4 24.7 17.9 67 4.1 NE 13 19 7 10 1010.0 1010.0 3.8
25/07:00pm 24.9 24.4 17.9 65 4.4 NE 17 20 9 11 1009.8 1009.8 3.8
25/06:30pm 25.2 24.4 17.9 64 4.6 NE 19 24 10 13 1009.7 1009.7 3.8
25/06:00pm 25.3 24.4 17.7 62 4.8 NE 19 24 10 13 1009.5 1009.5 3.8
25/05:30pm 25.4 24.5 17.8 62 4.8 NE 19 24 10 13 1009.3 1009.3 3.8
25/05:00pm 25.6 24.7 18.3 64 4.6 ENE 20 26 11 14 1009.2 1009.2 3.8
25/04:30pm 25.7 24.7 17.9 62 4.9 NE 20 26 11 14 1009.3 1009.3 3.8

Latest Capital City Observations: Canberra | Sydney | Melbourne | Brisbane | Adelaide | Perth | Hobart | Darwin

Other formats

Comma delimited format used in spreadsheet applications
http://www.bom.gov.au/fwo/IDQ60901/IDQ60901.94580.axf

JavaScript Object Notation format (JSON) in row-major order
http://www.bom.gov.au/fwo/IDQ60901/IDQ60901.94580.json

Data quality

Most of these data are generated automatically and are frequently updated. Quality checks on data are not normally performed. It is possible for incorrect values to appear. Refer to information at About Latest Weather Observations and please check the disclaimer before using these data.